sensor_id;sensor_type;location;lat;lon;timestamp;pressure;altitude;pressure_sealevel;temperature;humidity
37170;BME280;23062;13.952;100.608;2023-06-10T00:04:32;1006.60;;;30.96;71.77
37170;BME280;23062;13.952;100.608;2023-06-10T00:09:02;1006.77;;;30.88;72.25
37170;BME280;23062;13.952;100.608;2023-06-10T00:13:29;1006.90;;;30.94;71.71
37170;BME280;23062;13.952;100.608;2023-06-10T00:17:58;1006.90;;;30.99;71.40
37170;BME280;23062;13.952;100.608;2023-06-10T00:22:24;1006.86;;;30.97;71.80
37170;BME280;23062;13.952;100.608;2023-06-10T00:26:56;1006.78;;;31.03;71.71
37170;BME280;23062;13.952;100.608;2023-06-10T00:31:30;1006.88;;;31.02;72.31
37170;BME280;23062;13.952;100.608;2023-06-10T00:36:04;1006.97;;;31.00;72.73
37170;BME280;23062;13.952;100.608;2023-06-10T00:40:40;1007.09;;;31.11;72.67
37170;BME280;23062;13.952;100.608;2023-06-10T00:45:07;1007.10;;;31.08;72.48
37170;BME280;23062;13.952;100.608;2023-06-10T00:49:34;1007.12;;;31.09;72.11
37170;BME280;23062;13.952;100.608;2023-06-10T00:54:00;1007.07;;;31.13;72.41
37170;BME280;23062;13.952;100.608;2023-06-10T00:58:27;1007.19;;;31.12;72.67
37170;BME280;23062;13.952;100.608;2023-06-10T01:02:54;1007.21;;;31.14;72.51
37170;BME280;23062;13.952;100.608;2023-06-10T01:12:52;1007.35;;;31.16;71.18
37170;BME280;23062;13.952;100.608;2023-06-10T01:17:14;1007.45;;;31.17;70.21
37170;BME280;23062;13.952;100.608;2023-06-10T01:21:49;1007.51;;;31.12;69.43
37170;BME280;23062;13.952;100.608;2023-06-10T01:26:30;1007.57;;;31.13;69.09
37170;BME280;23062;13.952;100.608;2023-06-10T01:31:13;1007.55;;;31.13;69.50
37170;BME280;23062;13.952;100.608;2023-06-10T01:35:39;1007.56;;;31.13;69.68
37170;BME280;23062;13.952;100.608;2023-06-10T01:40:08;1007.55;;;31.17;69.86
37170;BME280;23062;13.952;100.608;2023-06-10T01:44:35;1007.53;;;31.11;69.77
37170;BME280;23062;13.952;100.608;2023-06-10T01:49:02;1007.58;;;31.15;69.81
37170;BME280;23062;13.952;100.608;2023-06-10T01:53:35;1007.49;;;31.14;69.83
37170;BME280;23062;13.952;100.608;2023-06-10T01:58:02;1007.51;;;31.17;69.63
37170;BME280;23062;13.952;100.608;2023-06-10T02:02:31;1007.55;;;31.19;69.49
37170;BME280;23062;13.952;100.608;2023-06-10T02:06:56;1007.54;;;31.17;68.87
37170;BME280;23062;13.952;100.608;2023-06-10T02:11:30;1007.46;;;31.18;68.50
37170;BME280;23062;13.952;100.608;2023-06-10T02:16:03;1007.31;;;31.19;67.52
37170;BME280;23062;13.952;100.608;2023-06-10T02:20:33;1007.37;;;31.24;67.29
37170;BME280;23062;13.952;100.608;2023-06-10T02:24:59;1007.28;;;31.26;67.39
37170;BME280;23062;13.952;100.608;2023-06-10T02:29:31;1007.16;;;31.25;67.48
37170;BME280;23062;13.952;100.608;2023-06-10T02:33:57;1007.13;;;31.23;67.22
37170;BME280;23062;13.952;100.608;2023-06-10T02:38:30;1007.07;;;31.22;66.39
37170;BME280;23062;13.952;100.608;2023-06-10T02:43:04;1007.00;;;31.26;66.09
37170;BME280;23062;13.952;100.608;2023-06-10T02:47:30;1007.06;;;31.29;65.49
37170;BME280;23062;13.952;100.608;2023-06-10T02:51:56;1007.02;;;31.30;64.69
37170;BME280;23062;13.952;100.608;2023-06-10T02:56:24;1006.93;;;31.31;64.64
37170;BME280;23062;13.952;100.608;2023-06-10T03:00:54;1007.00;;;31.34;64.05
37170;BME280;23062;13.952;100.608;2023-06-10T03:05:22;1006.97;;;31.32;63.66
37170;BME280;23062;13.952;100.608;2023-06-10T03:09:49;1007.00;;;31.35;63.16
37170;BME280;23062;13.952;100.608;2023-06-10T03:14:15;1006.97;;;31.33;62.88
37170;BME280;23062;13.952;100.608;2023-06-10T03:18:40;1006.90;;;31.33;62.81
37170;BME280;23062;13.952;100.608;2023-06-10T03:23:17;1006.93;;;31.34;62.69
37170;BME280;23062;13.952;100.608;2023-06-10T03:27:51;1006.91;;;31.39;62.89
37170;BME280;23062;13.952;100.608;2023-06-10T03:32:17;1006.90;;;31.40;63.34
37170;BME280;23062;13.952;100.608;2023-06-10T03:36:44;1006.90;;;31.43;64.04
37170;BME280;23062;13.952;100.608;2023-06-10T03:41:10;1006.88;;;31.42;64.41
37170;BME280;23062;13.952;100.608;2023-06-10T03:45:41;1007.00;;;31.42;64.61
37170;BME280;23062;13.952;100.608;2023-06-10T03:50:15;1006.94;;;31.43;64.71
37170;BME280;23062;13.952;100.608;2023-06-10T03:54:49;1006.93;;;31.44;64.27
37170;BME280;23062;13.952;100.608;2023-06-10T03:59:22;1006.97;;;31.49;64.10
37170;BME280;23062;13.952;100.608;2023-06-10T04:03:49;1007.05;;;31.49;64.16
37170;BME280;23062;13.952;100.608;2023-06-10T04:08:24;1007.19;;;31.51;64.19
37170;BME280;23062;13.952;100.608;2023-06-10T04:12:49;1007.18;;;31.49;64.10
37170;BME280;23062;13.952;100.608;2023-06-10T04:17:19;1007.20;;;31.52;64.10
37170;BME280;23062;13.952;100.608;2023-06-10T04:21:45;1007.15;;;31.51;63.99
37170;BME280;23062;13.952;100.608;2023-06-10T04:26:13;1007.14;;;31.54;63.78
37170;BME280;23062;13.952;100.608;2023-06-10T04:30:39;1007.07;;;31.59;63.73
37170;BME280;23062;13.952;100.608;2023-06-10T04:35:14;1006.90;;;31.60;63.59
37170;BME280;23062;13.952;100.608;2023-06-10T04:39:40;1006.79;;;31.63;63.06
37170;BME280;23062;13.952;100.608;2023-06-10T04:44:06;1006.76;;;31.64;63.03
37170;BME280;23062;13.952;100.608;2023-06-10T04:48:32;1006.72;;;31.66;62.93
37170;BME280;23062;13.952;100.608;2023-06-10T04:52:59;1006.69;;;31.69;62.57
37170;BME280;23062;13.952;100.608;2023-06-10T04:57:26;1006.59;;;31.73;61.34
37170;BME280;23062;13.952;100.608;2023-06-10T05:01:52;1006.59;;;31.75;60.54
37170;BME280;23062;13.952;100.608;2023-06-10T05:06:32;1006.46;;;31.77;60.09
37170;BME280;23062;13.952;100.608;2023-06-10T05:11:03;1006.40;;;31.79;60.41
37170;BME280;23062;13.952;100.608;2023-06-10T05:15:35;1006.40;;;31.82;60.80
37170;BME280;23062;13.952;100.608;2023-06-10T05:20:01;1006.49;;;31.87;61.56
37170;BME280;23062;13.952;100.608;2023-06-10T05:24:28;1006.59;;;31.90;62.61
37170;BME280;23062;13.952;100.608;2023-06-10T05:28:55;1006.59;;;31.90;62.89
37170;BME280;23062;13.952;100.608;2023-06-10T05:33:24;1006.48;;;31.87;62.57
37170;BME280;23062;13.952;100.608;2023-06-10T05:37:50;1006.42;;;31.88;62.59
37170;BME280;23062;13.952;100.608;2023-06-10T05:42:16;1006.39;;;31.90;62.90
37170;BME280;23062;13.952;100.608;2023-06-10T05:46:49;1006.31;;;31.93;64.01
37170;BME280;23062;13.952;100.608;2023-06-10T05:51:15;1006.22;;;31.96;65.23
37170;BME280;23062;13.952;100.608;2023-06-10T05:55:44;1006.09;;;31.97;65.64
37170;BME280;23062;13.952;100.608;2023-06-10T06:00:12;1005.93;;;31.99;66.60
37170;BME280;23062;13.952;100.608;2023-06-10T06:04:46;1005.80;;;32.01;66.55
37170;BME280;23062;13.952;100.608;2023-06-10T06:09:15;1005.75;;;32.04;66.02
37170;BME280;23062;13.952;100.608;2023-06-10T06:13:43;1005.70;;;32.05;65.59
37170;BME280;23062;13.952;100.608;2023-06-10T06:18:10;1005.53;;;32.06;64.81
37170;BME280;23062;13.952;100.608;2023-06-10T06:22:38;1005.54;;;32.10;64.39
37170;BME280;23062;13.952;100.608;2023-06-10T06:27:11;1005.53;;;32.09;63.95
37170;BME280;23062;13.952;100.608;2023-06-10T06:31:38;1005.44;;;32.11;63.65
37170;BME280;23062;13.952;100.608;2023-06-10T06:36:05;1005.25;;;32.13;63.63
37170;BME280;23062;13.952;100.608;2023-06-10T06:40:32;1005.10;;;32.11;62.90
37170;BME280;23062;13.952;100.608;2023-06-10T06:45:07;1004.96;;;32.15;62.25
37170;BME280;23062;13.952;100.608;2023-06-10T06:49:33;1004.98;;;32.16;62.15
37170;BME280;23062;13.952;100.608;2023-06-10T06:54:02;1004.94;;;32.15;61.43
37170;BME280;23062;13.952;100.608;2023-06-10T06:58:36;1004.88;;;32.14;61.36
37170;BME280;23062;13.952;100.608;2023-06-10T07:03:04;1004.79;;;32.15;60.88
37170;BME280;23062;13.952;100.608;2023-06-10T07:07:36;1004.72;;;32.16;60.53
37170;BME280;23062;13.952;100.608;2023-06-10T07:12:10;1004.70;;;32.16;60.02
37170;BME280;23062;13.952;100.608;2023-06-10T07:16:37;1004.64;;;32.16;60.20
37170;BME280;23062;13.952;100.608;2023-06-10T07:21:03;1004.66;;;32.16;60.21
37170;BME280;23062;13.952;100.608;2023-06-10T07:25:31;1004.59;;;32.15;60.25
37170;BME280;23062;13.952;100.608;2023-06-10T07:29:57;1004.51;;;32.16;60.41
37170;BME280;23062;13.952;100.608;2023-06-10T07:34:31;1004.39;;;32.18;60.54
37170;BME280;23062;13.952;100.608;2023-06-10T07:39:07;1004.28;;;32.20;60.52
37170;BME280;23062;13.952;100.608;2023-06-10T07:43:41;1004.19;;;32.22;60.38
37170;BME280;23062;13.952;100.608;2023-06-10T07:48:07;1004.20;;;32.24;59.69
37170;BME280;23062;13.952;100.608;2023-06-10T07:52:35;1004.10;;;32.24;59.08
37170;BME280;23062;13.952;100.608;2023-06-10T07:57:09;1004.10;;;32.22;58.42
37170;BME280;23062;13.952;100.608;2023-06-10T08:01:36;1004.03;;;32.23;58.50
37170;BME280;23062;13.952;100.608;2023-06-10T08:06:04;1003.89;;;32.22;58.71
37170;BME280;23062;13.952;100.608;2023-06-10T08:10:38;1003.76;;;32.21;58.46
37170;BME280;23062;13.952;100.608;2023-06-10T08:15:06;1003.68;;;32.21;58.60
37170;BME280;23062;13.952;100.608;2023-06-10T08:19:37;1003.61;;;32.19;58.67
37170;BME280;23062;13.952;100.608;2023-06-10T08:24:10;1003.45;;;32.20;58.63
37170;BME280;23062;13.952;100.608;2023-06-10T08:28:36;1003.39;;;32.17;57.70
37170;BME280;23062;13.952;100.608;2023-06-10T08:33:10;1003.42;;;32.18;57.43
37170;BME280;23062;13.952;100.608;2023-06-10T08:37:38;1003.42;;;32.17;57.21
37170;BME280;23062;13.952;100.608;2023-06-10T08:42:14;1003.35;;;32.17;56.98
37170;BME280;23062;13.952;100.608;2023-06-10T08:46:39;1003.26;;;32.16;57.14
37170;BME280;23062;13.952;100.608;2023-06-10T08:51:10;1003.28;;;32.18;56.75
37170;BME280;23062;13.952;100.608;2023-06-10T08:55:41;1003.22;;;32.18;56.79
37170;BME280;23062;13.952;100.608;2023-06-10T09:00:08;1003.14;;;32.18;56.82
37170;BME280;23062;13.952;100.608;2023-06-10T09:04:37;1003.03;;;32.17;56.78
37170;BME280;23062;13.952;100.608;2023-06-10T09:09:05;1002.97;;;32.17;56.96
37170;BME280;23062;13.952;100.608;2023-06-10T09:13:34;1002.95;;;32.19;56.66
37170;BME280;23062;13.952;100.608;2023-06-10T09:18:01;1002.84;;;32.19;56.78
37170;BME280;23062;13.952;100.608;2023-06-10T09:22:36;1002.84;;;32.18;56.55
37170;BME280;23062;13.952;100.608;2023-06-10T09:27:08;1002.89;;;32.17;56.87
37170;BME280;23062;13.952;100.608;2023-06-10T09:31:42;1002.83;;;32.18;57.13
37170;BME280;23062;13.952;100.608;2023-06-10T09:36:09;1002.85;;;32.17;57.12
37170;BME280;23062;13.952;100.608;2023-06-10T09:45:06;1002.99;;;32.19;57.20
37170;BME280;23062;13.952;100.608;2023-06-10T09:49:34;1003.05;;;32.19;57.43
37170;BME280;23062;13.952;100.608;2023-06-10T09:54:03;1003.05;;;32.18;57.64
37170;BME280;23062;13.952;100.608;2023-06-10T09:58:42;1003.06;;;32.17;57.44
37170;BME280;23062;13.952;100.608;2023-06-10T10:03:11;1003.01;;;32.16;57.58
37170;BME280;23062;13.952;100.608;2023-06-10T10:07:40;1003.07;;;32.22;57.92
37170;BME280;23062;13.952;100.608;2023-06-10T10:12:12;1003.10;;;32.24;57.87
37170;BME280;23062;13.952;100.608;2023-06-10T10:16:40;1003.15;;;32.26;58.01
37170;BME280;23062;13.952;100.608;2023-06-10T10:21:11;1003.13;;;32.25;58.11
37170;BME280;23062;13.952;100.608;2023-06-10T10:25:44;1003.21;;;32.17;57.98
37170;BME280;23062;13.952;100.608;2023-06-10T10:30:13;1003.21;;;32.15;57.67
37170;BME280;23062;13.952;100.608;2023-06-10T10:34:49;1003.33;;;32.16;57.43
37170;BME280;23062;13.952;100.608;2023-06-10T10:39:17;1003.37;;;32.17;57.03
37170;BME280;23062;13.952;100.608;2023-06-10T10:43:46;1003.51;;;32.16;57.04
37170;BME280;23062;13.952;100.608;2023-06-10T10:48:15;1003.49;;;32.16;57.27
37170;BME280;23062;13.952;100.608;2023-06-10T10:53:05;1003.59;;;32.17;57.39
37170;BME280;23062;13.952;100.608;2023-06-10T10:57:35;1003.69;;;32.17;57.51
37170;BME280;23062;13.952;100.608;2023-06-10T11:02:03;1003.72;;;32.17;57.42
37170;BME280;23062;13.952;100.608;2023-06-10T11:06:30;1003.75;;;32.16;57.53
37170;BME280;23062;13.952;100.608;2023-06-10T11:11:19;1003.79;;;32.16;57.82
37170;BME280;23062;13.952;100.608;2023-06-10T11:15:49;1003.86;;;32.17;57.75
37170;BME280;23062;13.952;100.608;2023-06-10T11:20:45;1003.99;;;32.16;57.93
37170;BME280;23062;13.952;100.608;2023-06-10T11:25:14;1004.01;;;32.17;57.78
37170;BME280;23062;13.952;100.608;2023-06-10T11:29:54;1004.15;;;32.18;57.72
37170;BME280;23062;13.952;100.608;2023-06-10T11:34:07;1004.26;;;32.18;57.56
37170;BME280;23062;13.952;100.608;2023-06-10T11:38:41;1004.41;;;32.13;56.91
37170;BME280;23062;13.952;100.608;2023-06-10T11:43:08;1004.56;;;32.14;56.93
37170;BME280;23062;13.952;100.608;2023-06-10T11:47:36;1004.64;;;32.15;56.96
37170;BME280;23062;13.952;100.608;2023-06-10T11:52:09;1004.79;;;32.14;57.32
37170;BME280;23062;13.952;100.608;2023-06-10T11:56:35;1004.94;;;32.16;57.91
37170;BME280;23062;13.952;100.608;2023-06-10T12:01:02;1005.01;;;32.12;58.75
37170;BME280;23062;13.952;100.608;2023-06-10T12:05:37;1005.04;;;32.08;59.56
37170;BME280;23062;13.952;100.608;2023-06-10T12:10:05;1005.08;;;32.11;59.92
37170;BME280;23062;13.952;100.608;2023-06-10T12:14:59;1005.10;;;32.12;60.16
37170;BME280;23062;13.952;100.608;2023-06-10T12:19:31;1005.11;;;32.12;60.16
37170;BME280;23062;13.952;100.608;2023-06-10T12:24:01;1005.13;;;32.09;60.49
37170;BME280;23062;13.952;100.608;2023-06-10T12:28:34;1005.04;;;32.12;60.61
37170;BME280;23062;13.952;100.608;2023-06-10T12:33:01;1005.13;;;32.11;60.51
37170;BME280;23062;13.952;100.608;2023-06-10T12:37:26;1005.26;;;32.11;60.41
37170;BME280;23062;13.952;100.608;2023-06-10T12:41:53;1005.38;;;32.09;60.45
37170;BME280;23062;13.952;100.608;2023-06-10T12:46:25;1005.38;;;32.11;60.36
37170;BME280;23062;13.952;100.608;2023-06-10T12:50:54;1005.47;;;32.10;60.34
37170;BME280;23062;13.952;100.608;2023-06-10T12:55:30;1005.52;;;32.05;60.45
37170;BME280;23062;13.952;100.608;2023-06-10T13:00:04;1005.58;;;32.04;60.47
37170;BME280;23062;13.952;100.608;2023-06-10T13:04:39;1005.61;;;32.02;60.42
37170;BME280;23062;13.952;100.608;2023-06-10T13:09:11;1005.70;;;32.04;60.49
37170;BME280;23062;13.952;100.608;2023-06-10T13:13:39;1005.77;;;32.08;60.50
37170;BME280;23062;13.952;100.608;2023-06-10T13:18:05;1005.77;;;32.09;60.39
37170;BME280;23062;13.952;100.608;2023-06-10T13:22:31;1005.90;;;32.11;60.44
37170;BME280;23062;13.952;100.608;2023-06-10T13:27:00;1006.05;;;32.09;60.49
37170;BME280;23062;13.952;100.608;2023-06-10T13:31:27;1006.08;;;32.09;60.62
37170;BME280;23062;13.952;100.608;2023-06-10T13:35:54;1006.06;;;32.11;60.73
37170;BME280;23062;13.952;100.608;2023-06-10T13:40:27;1006.09;;;32.14;60.85
37170;BME280;23062;13.952;100.608;2023-06-10T13:45:01;1006.11;;;32.15;60.85
37170;BME280;23062;13.952;100.608;2023-06-10T13:49:28;1006.17;;;32.12;60.98
37170;BME280;23062;13.952;100.608;2023-06-10T13:53:58;1006.18;;;32.10;61.01
37170;BME280;23062;13.952;100.608;2023-06-10T13:58:26;1006.20;;;32.13;60.97
37170;BME280;23062;13.952;100.608;2023-06-10T14:02:52;1006.29;;;32.12;61.05
37170;BME280;23062;13.952;100.608;2023-06-10T14:07:25;1006.34;;;32.17;60.85
37170;BME280;23062;13.952;100.608;2023-06-10T14:12:01;1006.39;;;32.19;60.86
37170;BME280;23062;13.952;100.608;2023-06-10T14:16:35;1006.46;;;32.21;60.72
37170;BME280;23062;13.952;100.608;2023-06-10T14:21:09;1006.54;;;32.20;60.81
37170;BME280;23062;13.952;100.608;2023-06-10T14:25:35;1006.58;;;32.21;60.74
37170;BME280;23062;13.952;100.608;2023-06-10T14:30:05;1006.67;;;32.20;60.74
37170;BME280;23062;13.952;100.608;2023-06-10T14:34:33;1006.71;;;32.21;60.72
37170;BME280;23062;13.952;100.608;2023-06-10T14:39:00;1006.69;;;32.20;60.83
37170;BME280;23062;13.952;100.608;2023-06-10T14:43:36;1006.74;;;32.19;60.97
37170;BME280;23062;13.952;100.608;2023-06-10T14:48:03;1006.72;;;32.19;60.97
37170;BME280;23062;13.952;100.608;2023-06-10T14:52:31;1006.72;;;32.18;61.03
37170;BME280;23062;13.952;100.608;2023-06-10T14:56:58;1006.79;;;32.19;61.11
37170;BME280;23062;13.952;100.608;2023-06-10T15:01:33;1006.78;;;32.17;61.24
37170;BME280;23062;13.952;100.608;2023-06-10T15:06:07;1006.75;;;32.18;61.24
37170;BME280;23062;13.952;100.608;2023-06-10T15:10:36;1006.84;;;32.19;61.21
37170;BME280;23062;13.952;100.608;2023-06-10T15:15:02;1006.83;;;32.18;61.38
37170;BME280;23062;13.952;100.608;2023-06-10T15:19:29;1006.80;;;32.18;61.43
37170;BME280;23062;13.952;100.608;2023-06-10T15:24:02;1006.82;;;32.18;61.51
37170;BME280;23062;13.952;100.608;2023-06-10T15:28:28;1006.81;;;32.20;61.38
37170;BME280;23062;13.952;100.608;2023-06-10T15:32:59;1006.81;;;32.18;61.64
37170;BME280;23062;13.952;100.608;2023-06-10T15:37:26;1006.71;;;32.20;61.55
37170;BME280;23062;13.952;100.608;2023-06-10T15:41:59;1006.66;;;32.16;61.65
37170;BME280;23062;13.952;100.608;2023-06-10T15:46:26;1006.81;;;32.17;61.76
37170;BME280;23062;13.952;100.608;2023-06-10T15:50:53;1006.87;;;32.17;61.89
37170;BME280;23062;13.952;100.608;2023-06-10T15:55:20;1006.84;;;32.17;61.83
37170;BME280;23062;13.952;100.608;2023-06-10T15:59:47;1006.80;;;32.16;61.90
37170;BME280;23062;13.952;100.608;2023-06-10T16:04:14;1006.86;;;32.16;61.95
37170;BME280;23062;13.952;100.608;2023-06-10T16:08:43;1006.82;;;32.17;61.79
37170;BME280;23062;13.952;100.608;2023-06-10T16:13:10;1006.88;;;32.18;61.92
37170;BME280;23062;13.952;100.608;2023-06-10T16:17:40;1006.98;;;32.16;61.97
37170;BME280;23062;13.952;100.608;2023-06-10T16:22:15;1006.92;;;32.14;61.94
37170;BME280;23062;13.952;100.608;2023-06-10T16:26:46;1006.91;;;32.16;61.98
37170;BME280;23062;13.952;100.608;2023-06-10T16:31:21;1006.83;;;32.15;62.04
37170;BME280;23062;13.952;100.608;2023-06-10T16:35:49;1006.80;;;32.17;62.05
37170;BME280;23062;13.952;100.608;2023-06-10T16:40:22;1006.71;;;32.15;62.15
37170;BME280;23062;13.952;100.608;2023-06-10T16:44:56;1006.72;;;32.13;62.15
37170;BME280;23062;13.952;100.608;2023-06-10T16:49:32;1006.70;;;32.13;62.11
37170;BME280;23062;13.952;100.608;2023-06-10T16:53:59;1006.66;;;32.11;62.09
37170;BME280;23062;13.952;100.608;2023-06-10T16:58:26;1006.71;;;32.12;62.17
37170;BME280;23062;13.952;100.608;2023-06-10T17:02:52;1006.63;;;32.10;62.02
37170;BME280;23062;13.952;100.608;2023-06-10T17:07:27;1006.61;;;32.08;61.97
37170;BME280;23062;13.952;100.608;2023-06-10T17:11:54;1006.61;;;32.09;61.90
37170;BME280;23062;13.952;100.608;2023-06-10T17:16:20;1006.56;;;32.09;61.97
37170;BME280;23062;13.952;100.608;2023-06-10T17:20:48;1006.49;;;32.08;61.99
37170;BME280;23062;13.952;100.608;2023-06-10T17:25:14;1006.49;;;32.09;61.86
37170;BME280;23062;13.952;100.608;2023-06-10T17:29:42;1006.49;;;32.09;61.84
37170;BME280;23062;13.952;100.608;2023-06-10T17:34:15;1006.46;;;32.09;61.73
37170;BME280;23062;13.952;100.608;2023-06-10T17:38:44;1006.42;;;32.09;61.74
37170;BME280;23062;13.952;100.608;2023-06-10T17:43:11;1006.32;;;32.09;61.71
37170;BME280;23062;13.952;100.608;2023-06-10T17:47:41;1006.20;;;32.08;61.70
37170;BME280;23062;13.952;100.608;2023-06-10T17:52:08;1006.23;;;32.09;61.71
37170;BME280;23062;13.952;100.608;2023-06-10T17:56:34;1006.13;;;32.07;61.72
37170;BME280;23062;13.952;100.608;2023-06-10T18:01:00;1006.16;;;32.07;61.72
37170;BME280;23062;13.952;100.608;2023-06-10T18:05:27;1006.13;;;32.07;61.72
37170;BME280;23062;13.952;100.608;2023-06-10T18:09:54;1006.06;;;32.06;61.68
37170;BME280;23062;13.952;100.608;2023-06-10T18:14:29;1005.97;;;32.04;61.71
37170;BME280;23062;13.952;100.608;2023-06-10T18:19:03;1005.96;;;32.04;61.69
37170;BME280;23062;13.952;100.608;2023-06-10T18:23:39;1005.91;;;32.03;61.64
37170;BME280;23062;13.952;100.608;2023-06-10T18:28:05;1005.87;;;32.03;61.55
37170;BME280;23062;13.952;100.608;2023-06-10T18:32:33;1005.83;;;32.03;61.50
37170;BME280;23062;13.952;100.608;2023-06-10T18:37:00;1005.78;;;32.01;61.50
37170;BME280;23062;13.952;100.608;2023-06-10T18:41:27;1005.76;;;31.98;61.49
37170;BME280;23062;13.952;100.608;2023-06-10T18:45:54;1005.66;;;31.98;61.40
37170;BME280;23062;13.952;100.608;2023-06-10T18:50:21;1005.59;;;31.97;61.33
37170;BME280;23062;13.952;100.608;2023-06-10T18:54:48;1005.61;;;31.96;61.29
37170;BME280;23062;13.952;100.608;2023-06-10T18:59:14;1005.52;;;31.94;61.16
37170;BME280;23062;13.952;100.608;2023-06-10T19:03:40;1005.54;;;31.96;61.06
37170;BME280;23062;13.952;100.608;2023-06-10T19:08:07;1005.49;;;31.96;60.91
37170;BME280;23062;13.952;100.608;2023-06-10T19:12:36;1005.47;;;31.93;60.86
37170;BME280;23062;13.952;100.608;2023-06-10T19:17:03;1005.37;;;31.93;60.79
37170;BME280;23062;13.952;100.608;2023-06-10T19:21:30;1005.32;;;31.90;60.62
37170;BME280;23062;13.952;100.608;2023-06-10T19:25:56;1005.33;;;31.89;60.74
37170;BME280;23062;13.952;100.608;2023-06-10T19:30:27;1005.28;;;31.89;60.61
37170;BME280;23062;13.952;100.608;2023-06-10T19:35:02;1005.16;;;31.89;60.67
37170;BME280;23062;13.952;100.608;2023-06-10T19:39:28;1005.14;;;31.89;60.58
37170;BME280;23062;13.952;100.608;2023-06-10T19:43:54;1005.13;;;31.89;60.54
37170;BME280;23062;13.952;100.608;2023-06-10T19:48:20;1005.07;;;31.91;60.53
37170;BME280;23062;13.952;100.608;2023-06-10T19:52:46;1004.99;;;31.90;60.51
37170;BME280;23062;13.952;100.608;2023-06-10T19:57:19;1004.96;;;31.89;60.48
37170;BME280;23062;13.952;100.608;2023-06-10T20:01:45;1004.88;;;31.89;60.44
37170;BME280;23062;13.952;100.608;2023-06-10T20:06:18;1004.79;;;31.88;60.45
37170;BME280;23062;13.952;100.608;2023-06-10T20:10:44;1004.76;;;31.88;60.45
37170;BME280;23062;13.952;100.608;2023-06-10T20:15:10;1004.81;;;31.88;60.41
37170;BME280;23062;13.952;100.608;2023-06-10T20:19:35;1004.82;;;31.86;60.45
37170;BME280;23062;13.952;100.608;2023-06-10T20:24:08;1004.81;;;31.86;60.42
37170;BME280;23062;13.952;100.608;2023-06-10T20:28:35;1004.85;;;31.85;60.42
37170;BME280;23062;13.952;100.608;2023-06-10T20:33:08;1004.91;;;31.85;60.44
37170;BME280;23062;13.952;100.608;2023-06-10T20:37:34;1004.86;;;31.84;60.43
37170;BME280;23062;13.952;100.608;2023-06-10T20:42:00;1004.85;;;31.84;60.40
37170;BME280;23062;13.952;100.608;2023-06-10T20:46:29;1004.87;;;31.83;60.42
37170;BME280;23062;13.952;100.608;2023-06-10T20:50:56;1004.90;;;31.83;60.39
37170;BME280;23062;13.952;100.608;2023-06-10T20:55:23;1005.02;;;31.82;60.21
37170;BME280;23062;13.952;100.608;2023-06-10T20:59:58;1005.02;;;31.81;60.36
37170;BME280;23062;13.952;100.608;2023-06-10T21:04:29;1005.03;;;31.80;60.38
37170;BME280;23062;13.952;100.608;2023-06-10T21:08:55;1005.07;;;31.79;60.40
37170;BME280;23062;13.952;100.608;2023-06-10T21:13:27;1005.08;;;31.77;60.53
37170;BME280;23062;13.952;100.608;2023-06-10T21:17:55;1005.09;;;31.62;61.19
37170;BME280;23062;13.952;100.608;2023-06-10T21:22:21;1005.11;;;31.60;61.31
37170;BME280;23062;13.952;100.608;2023-06-10T21:26:48;1005.17;;;31.62;61.32
37170;BME280;23062;13.952;100.608;2023-06-10T21:31:16;1005.24;;;31.61;61.40
37170;BME280;23062;13.952;100.608;2023-06-10T21:35:49;1005.21;;;31.60;61.48
37170;BME280;23062;13.952;100.608;2023-06-10T21:40:18;1005.16;;;31.61;61.52
37170;BME280;23062;13.952;100.608;2023-06-10T21:44:46;1005.18;;;31.61;61.53
37170;BME280;23062;13.952;100.608;2023-06-10T21:49:12;1005.20;;;31.61;61.54
37170;BME280;23062;13.952;100.608;2023-06-10T21:53:46;1005.23;;;31.62;61.54
37170;BME280;23062;13.952;100.608;2023-06-10T21:58:13;1005.18;;;31.60;61.63
37170;BME280;23062;13.952;100.608;2023-06-10T22:02:41;1005.16;;;31.53;62.19
37170;BME280;23062;13.952;100.608;2023-06-10T22:07:08;1005.22;;;31.48;62.82
37170;BME280;23062;13.952;100.608;2023-06-10T22:11:34;1005.22;;;31.47;63.10
37170;BME280;23062;13.952;100.608;2023-06-10T22:16:08;1005.24;;;31.42;63.20
37170;BME280;23062;13.952;100.608;2023-06-10T22:20:34;1005.28;;;31.40;63.13
37170;BME280;23062;13.952;100.608;2023-06-10T22:25:08;1005.32;;;31.34;63.22
37170;BME280;23062;13.952;100.608;2023-06-10T22:29:38;1005.35;;;31.34;63.40
37170;BME280;23062;13.952;100.608;2023-06-10T22:34:05;1005.42;;;31.30;63.68
37170;BME280;23062;13.952;100.608;2023-06-10T22:38:33;1005.45;;;31.34;63.81
37170;BME280;23062;13.952;100.608;2023-06-10T22:42:59;1005.48;;;31.34;63.91
37170;BME280;23062;13.952;100.608;2023-06-10T22:47:25;1005.50;;;31.35;63.91
37170;BME280;23062;13.952;100.608;2023-06-10T22:51:58;1005.62;;;31.28;64.51
37170;BME280;23062;13.952;100.608;2023-06-10T22:56:27;1005.61;;;31.25;64.88
37170;BME280;23062;13.952;100.608;2023-06-10T23:00:52;1005.67;;;31.27;64.95
37170;BME280;23062;13.952;100.608;2023-06-10T23:05:18;1005.72;;;31.28;64.79
37170;BME280;23062;13.952;100.608;2023-06-10T23:09:45;1005.76;;;31.20;66.56
37170;BME280;23062;13.952;100.608;2023-06-10T23:14:20;1005.72;;;31.13;66.23
37170;BME280;23062;13.952;100.608;2023-06-10T23:18:46;1005.79;;;31.13;65.85
37170;BME280;23062;13.952;100.608;2023-06-10T23:23:12;1005.88;;;31.12;65.51
37170;BME280;23062;13.952;100.608;2023-06-10T23:27:45;1005.96;;;31.11;65.40
37170;BME280;23062;13.952;100.608;2023-06-10T23:32:11;1005.99;;;31.12;65.27
37170;BME280;23062;13.952;100.608;2023-06-10T23:36:37;1005.97;;;31.12;65.32
37170;BME280;23062;13.952;100.608;2023-06-10T23:41:04;1005.98;;;31.15;65.29